Flight Track Log - Related Links

Times and Time Zones

All times are in EDT time to prevent confusion due to time zone crossing. See the ASQ5025 flight status page for this flight to view local times or setup timezone preferences in your user account.

Time Position Orientation Groundspeed Altitude Reporting Facility
EDT Latitude Longitude Course Direction KTS MPH feet Rate Location/Type
Sun 11:36:26 AM 44.3800 -73.1489 196° South 203 234 4,200  Level Boston Center
Sun 11:37:26 AM 44.3111 -73.1769 196° South 245 282 6,800 2,800 Climbing Boston Center
Sun 11:38:26 AM 44.2339 -73.2078 196° South 273 314 9,800 2,350 Climbing Boston Center
Sun 11:39:26 AM 44.1522 -73.2417 197° South 294 338 11,500 1,800 Climbing Boston Center
Sun 11:40:26 AM 44.0539 -73.3067 205° Southwest 347 399 13,400 2,150 Climbing Boston Center
Sun 11:41:00 AM 43.9829 -73.3335 196° South  Level FlightAware Approximate
Sun 11:41:26 AM 43.9800 -73.4094 225° Southwest 369 425 15,800  Level Boston Center
Sun 11:42:26 AM 43.9061 -73.5178 227° Southwest 380 437 17,700 1,650 Climbing Boston Center
Sun 11:43:26 AM 43.8300 -73.6258 226° Southwest 397 457 19,100 1,550 Climbing Boston Center
Sun 11:44:26 AM 43.7214 -73.6697 196° South 387 445 20,800 1,409 Climbing Boston Center
Sun 11:45:38 AM 43.6192 -73.6847 186° South 403 464 22,200 1,273 Climbing Boston Center
Sun 11:46:38 AM 43.4792 -73.7019 185° South 414 476 23,600 900 Climbing Boston Center
Sun 11:47:38 AM 43.3561 -73.7164 185° South 435 501 24,000 200 Climbing Boston Center
Sun 11:48:38 AM 43.2481 -73.6942 171° South 430 495 24,000  Level Boston Center
Sun 11:49:38 AM 43.1483 -73.6639 168° South 398 458 24,000  Level Boston Center
Sun 11:50:50 AM 43.0269 -73.6983 192° South 384 442 24,000 -500 Level Boston Center
Sun 11:51:50 AM 42.8908 -73.7522 196° South 410 472 22,900 -1,150 Descending Boston Center
Sun 11:52:50 AM 42.7764 -73.7469 178° South 416 479 21,700 -1,200 Descending Boston Center
Sun 11:53:50 AM 42.6703 -73.7306 174° South 399 459 20,500 -1,150 Descending Boston Center
Sun 11:54:50 AM 42.5725 -73.7172 174° South 399 459 19,400 -1,150 Descending Boston Center
Sun 11:55:50 AM 42.4683 -73.6983 172° South 394 453 18,200 -700 Descending Boston Center
Sun 11:56:50 AM 42.3519 -73.6817 174° South 382 440 18,000 -100 Descending Boston Center
Sun 11:57:50 AM 42.2603 -73.6717 175° South 377 434 18,000  Level Boston Center
Sun 11:58:50 AM 42.1564 -73.6583 175° South 377 434 18,000  Level Boston Center
Sun 11:59:50 AM 42.0539 -73.6814 189° South 377 434 18,000  Level Boston Center
Sun 12:00:50 PM 41.9431 -73.7156 193° South 377 434 18,000 -250 Level Boston Center
Sun 12:01:50 PM 41.8511 -73.7472 194° South 377 434 17,500 -727 Descending Boston Center
Sun 12:03:02 PM 41.7422 -73.7811 193° South 372 428 16,400 -1,136 Descending Boston Center
Sun 12:04:02 PM 41.6272 -73.8203 194° South 365 420 15,000 -1,850 Descending Boston Center
Sun 12:05:02 PM 41.5308 -73.8517 194° South 360 414 12,700 -2,471 Descending Boston Center
Sun 12:05:27 PM 41.5000 -73.8667 200° South 347 399 11,500 -1,835 Descending New York TRACON
Sun 12:06:27 PM 41.4167 -73.8500 171° South 303 349 10,100 -1,250 Descending New York TRACON
Sun 12:07:27 PM 41.3500 -73.8000 151° Southeast 271 312 9,000 -579 Descending New York TRACON
Sun 12:08:21 PM 41.2833 -73.7500 151° Southeast 280 322 9,000  Level New York TRACON
Sun 12:09:21 PM 41.2167 -73.6833 143° Southeast 277 319 9,000 -650 Level New York TRACON
Sun 12:10:21 PM 41.1667 -73.6333 143° Southeast 269 310 7,700 -1,500 Descending New York TRACON
Sun 12:11:21 PM 41.1000 -73.6167 169° South 292 336 6,000 -1,619 Descending New York TRACON
Sun 12:12:27 PM 41.0167 -73.6667 204° Southwest 283 326 4,300 -952 Descending New York TRACON
Sun 12:13:27 PM 40.9667 -73.7500 232° Southwest 276 318 4,000 -149 Descending New York TRACON
Sun 12:14:28 PM 40.9333 -73.8333 242° Southwest 278 320 4,000  Level New York TRACON
Sun 12:15:27 PM 40.8833 -73.9167 232° Southwest 272 313 4,000  Level New York TRACON
Sun 12:16:21 PM 40.8333 -73.9667 217° Southwest 277 319 4,000  Level New York TRACON
Sun 12:17:27 PM 40.7500 -74.0167 204° Southwest 276 318 4,000 -450 Level New York TRACON
Sun 12:18:21 PM 40.6833 -74.0500 201° Southwest 266 306 3,100 -500 Descending New York TRACON
Sun 12:19:27 PM 40.6333 -74.0500 180° South 201 231 3,000 -250 Descending New York TRACON
Sun 12:20:21 PM 40.6333 -74.0000 90° East 180 207 2,600 -526 Descending New York TRACON
Sun 12:21:21 PM 40.6667 -73.9667 37° Northeast 177 204 2,000 -550 Descending New York TRACON
Sun 12:22:21 PM 40.7167 -73.9333 27° Northeast 141 162 1,500 -600 Descending New York TRACON
Sun 12:23:21 PM 40.7333 -73.9167 37° Northeast 132 152 800 -700 Descending New York TRACON

Login

Don't have an account? Register now (free) for customized features, flight alerts, and more!